Time;durP1;ratioP1;P1;durP2;ratioP2;P2;SDS_P1;SDS_P2;PMS_P1;PMS_P2;Temp;Humidity;BMP_temperature;BMP_pressure;BME280_temperature;BME280_humidity;BME280_pressure;Samples;Min_cycle;Max_cycle;Signal;HPM_P1;HPM_P2
2022/04/26 03:36:40;;;;;;;41.45;29.17;;;;;;;15.65;56.83;94887.16;4972572;28;20087;-63
2022/04/26 03:39:06;;;;;;;39.67;29.65;;;;;;;15.73;56.93;94888.91;4972190;28;20107;-63
2022/04/26 03:41:33;;;;;;;40.28;29.40;;;;;;;15.79;57.00;94896.34;4971627;28;20472;-63
2022/04/26 03:43:59;;;;;;;36.22;28.98;;;;;;;15.79;57.16;94890.22;4980702;28;20050;-63
2022/04/26 03:46:24;;;;;;;44.33;31.35;;;;;;;15.59;56.75;94865.13;4991192;28;20018;-63
2022/04/26 03:48:50;;;;;;;39.15;28.77;;;;;;;15.81;57.01;94893.31;4991367;28;20563;-63
2022/04/26 03:51:15;;;;;;;36.15;27.95;;;;;;;15.63;56.80;94866.03;4990837;28;20037;-63
2022/04/26 03:53:41;;;;;;;35.42;27.27;;;;;;;15.81;57.12;94896.78;4989919;28;20036;-63
2022/04/26 03:56:06;;;;;;;32.30;26.10;;;;;;;15.69;56.70;94870.03;4990876;28;20026;-63
2022/04/26 03:58:33;;;;;;;33.13;26.00;;;;;;;15.64;56.79;94866.81;4993382;28;20108;-63
2022/04/26 04:00:59;;;;;;;27.63;24.67;;;;;;;15.53;56.60;94858.47;4995596;28;20489;-63
2022/04/26 04:03:24;;;;;;;36.03;26.20;;;;;;;15.73;56.60;94881.63;4991302;28;20030;-63
2022/04/26 04:05:50;;;;;;;38.75;29.13;;;;;;;15.80;56.51;94894.44;4991052;28;20118;-63
2022/04/26 04:08:15;;;;;;;33.40;26.13;;;;;;;15.83;56.61;94904.50;4989749;28;20050;-63
2022/04/26 04:10:40;;;;;;;31.35;26.27;;;;;;;15.74;56.63;94882.41;4990446;28;20061;-63
2022/04/26 04:13:06;;;;;;;33.17;26.02;;;;;;;15.81;56.49;94904.81;4990502;28;20077;-63
2022/04/26 04:15:31;;;;;;;33.47;25.25;;;;;;;15.76;56.64;94885.53;4990564;28;20030;-64
2022/04/26 04:17:57;;;;;;;37.20;27.13;;;;;;;15.92;56.43;94912.38;4991045;28;20038;-63
2022/04/26 04:20:22;;;;;;;27.15;24.10;;;;;;;15.65;56.41;94858.44;4990523;28;20036;-63
2022/04/26 04:22:48;;;;;;;28.52;24.45;;;;;;;15.92;56.10;94907.81;4990452;28;20030;-63
2022/04/26 04:25:15;;;;;;;31.38;25.58;;;;;;;15.76;56.17;94885.53;4990680;28;20513;-63
2022/04/26 04:27:41;;;;;;;28.35;24.58;;;;;;;16.01;56.18;94910.31;4990472;28;20049;-63
2022/04/26 04:30:07;;;;;;;29.80;25.85;;;;;;;15.97;56.04;94918.31;4987703;28;20026;-63
2022/04/26 04:32:33;;;;;;;24.95;22.45;;;;;;;15.94;55.94;94918.97;4990299;28;20026;-63
2022/04/26 04:34:58;;;;;;;25.40;22.80;;;;;;;15.60;55.82;94915.72;4990445;28;20826;-63
2022/04/26 04:37:24;;;;;;;48.45;31.27;;;;;;;15.70;56.07;94903.00;4990669;28;20073;-67
2022/04/26 04:39:50;;;;;;;33.38;26.95;;;;;;;15.79;56.15;94903.63;4988482;28;20023;-65
2022/04/26 04:42:15;;;;;;;35.15;26.60;;;;;;;15.94;56.73;94924.34;4985865;28;20030;-65
2022/04/26 04:44:41;;;;;;;34.05;27.27;;;;;;;15.72;56.15;94904.22;4988673;28;20487;-65
2022/04/26 04:47:06;;;;;;;35.95;26.83;;;;;;;15.89;56.24;94902.34;4988453;28;20088;-65
2022/04/26 04:49:32;;;;;;;27.88;24.25;;;;;;;15.92;56.44;94905.13;4988296;28;20038;-63
2022/04/26 04:51:57;;;;;;;29.95;25.30;;;;;;;16.14;55.82;94921.78;4983131;28;20114;-62
2022/04/26 04:54:23;;;;;;;28.95;24.10;;;;;;;15.98;55.91;94886.88;4987819;28;20038;-63
2022/04/26 04:56:48;;;;;;;29.65;25.45;;;;;;;16.22;56.04;94920.81;4987535;28;20037;-63
2022/04/26 04:59:14;;;;;;;36.13;27.65;;;;;;;16.32;55.63;94918.41;4988232;28;20061;-63
2022/04/26 05:01:39;;;;;;;28.92;25.00;;;;;;;16.20;55.58;94877.47;4995561;28;20037;-63
2022/04/26 05:04:04;;;;;;;26.83;24.02;;;;;;;16.54;55.10;94908.22;4985243;28;20035;-63
2022/04/26 05:06:30;;;;;;;24.60;22.05;;;;;;;16.73;54.85;94920.97;4990088;28;20030;-63
2022/04/26 05:08:57;;;;;;;26.08;23.23;;;;;;;16.93;54.47;94927.19;4991014;28;20018;-64
2022/04/26 05:11:22;;;;;;;26.15;22.80;;;;;;;16.69;54.16;94867.16;4992445;28;20031;-65
2022/04/26 05:13:47;;;;;;;23.60;21.20;;;;;;;17.05;54.07;94914.44;4992693;28;20360;-65
2022/04/26 05:16:13;;;;;;;23.08;20.77;;;;;;;17.20;53.74;94928.16;4992487;28;20034;-64
2022/04/26 05:18:38;;;;;;;26.23;23.50;;;;;;;17.05;53.72;94902.91;4992315;28;20018;-64
2022/04/26 05:21:12;;;;;;;22.58;20.48;;;;;;;17.21;53.49;94919.00;4991630;28;20034;-65
2022/04/26 05:26:22;;;;;;;22.10;20.10;;;;;;;17.37;53.04;94933.16;4991246;28;20149;-65
2022/04/26 05:28:48;;;;;;;21.95;19.85;;;;;;;17.28;52.98;94913.75;4993806;28;20515;-65
2022/04/26 05:31:14;;;;;;;22.63;20.52;;;;;;;17.32;52.86;94934.22;4984281;28;20030;-64
2022/04/26 05:33:40;;;;;;;22.05;19.95;;;;;;;17.22;52.91;94913.25;4992068;28;20101;-63
2022/04/26 05:36:05;;;;;;;21.65;19.45;;;;;;;17.00;52.76;94879.75;4992177;28;20475;-64
2022/04/26 05:38:31;;;;;;;25.23;20.67;;;;;;;17.36;52.64;94945.81;4994464;28;20459;-64
2022/04/26 05:40:56;;;;;;;21.73;19.73;;;;;;;17.14;52.70;94904.25;4989443;28;20109;-64
2022/04/26 05:43:22;;;;;;;22.58;20.27;;;;;;;17.28;52.62;94922.59;4993869;28;20030;-64
2022/04/26 05:45:47;;;;;;;22.52;20.33;;;;;;;17.50;52.50;94937.25;4993318;28;20038;-65
2022/04/26 05:48:13;;;;;;;20.65;18.83;;;;;;;17.61;52.41;94940.19;4992524;28;20561;-63
2022/04/26 05:50:40;;;;;;;22.15;18.48;;;;;;;17.66;52.13;94950.66;4991577;28;20023;-65
2022/04/26 05:53:06;;;;;;;21.02;19.02;;;;;;;17.65;52.13;94928.34;4992784;28;20416;-65
2022/04/26 05:55:32;;;;;;;20.38;18.52;;;;;;;17.66;52.07;94919.16;4992304;28;20757;-64
2022/04/26 05:57:58;;;;;;;18.13;16.45;;;;;;;17.71;51.46;94957.66;4991486;28;20034;-64
2022/04/26 06:00:23;;;;;;;19.23;17.52;;;;;;;17.26;51.10;94921.41;4989965;28;20030;-65
2022/04/26 06:02:49;;;;;;;19.38;17.70;;;;;;;16.95;51.94;94952.59;4990228;28;20033;-64
2022/04/26 06:05:14;;;;;;;20.45;18.67;;;;;;;17.10;52.66;94949.09;4992166;28;20058;-64
2022/04/26 06:07:40;;;;;;;22.23;20.13;;;;;;;17.10;53.06;94941.03;4992531;28;20402;-64
2022/04/26 06:10:06;;;;;;;21.92;19.88;;;;;;;17.09;53.64;94942.13;4990679;28;20889;-65
2022/04/26 06:12:31;;;;;;;21.48;19.48;;;;;;;16.98;53.77;94918.84;4984559;28;20037;-64
2022/04/26 06:14:57;;;;;;;22.00;19.92;;;;;;;17.28;54.06;94951.38;4990555;28;20520;-64
2022/04/26 06:17:23;;;;;;;19.02;17.33;;;;;;;17.48;53.71;94955.66;4992368;28;20027;-65
2022/04/26 06:19:48;;;;;;;18.58;16.58;;;;;;;17.07;52.43;94954.38;4992515;28;20490;-62
2022/04/26 06:22:14;;;;;;;15.70;14.20;;;;;;;16.91;52.60;94940.97;4989628;28;20038;-64
2022/04/26 06:24:40;;;;;;;15.80;14.35;;;;;;;17.46;52.23;94952.56;4992673;28;20561;-64
2022/04/26 06:27:05;;;;;;;17.05;15.65;;;;;;;17.52;52.15;94937.69;4992866;28;20030;-64
2022/04/26 06:29:31;;;;;;;17.10;15.70;;;;;;;18.10;51.82;94956.53;4991562;28;20045;-64
2022/04/26 06:31:56;;;;;;;15.70;14.35;;;;;;;18.21;50.44;94931.75;4990240;28;20411;-64
2022/04/26 06:34:22;;;;;;;17.08;15.48;;;;;;;18.37;50.37;94913.56;4992862;28;20038;-64
2022/04/26 06:36:47;;;;;;;14.32;13.25;;;;;;;18.32;49.51;94944.25;4987367;28;20108;-64
2022/04/26 06:39:13;;;;;;;14.68;13.38;;;;;;;15.77;54.63;94949.56;4973549;28;20023;-64
2022/04/26 06:41:38;;;;;;;14.93;13.68;;;;;;;15.02;58.65;94971.47;4972780;28;20506;-63
2022/04/26 06:44:04;;;;;;;13.90;12.80;;;;;;;15.52;57.26;94964.91;4973247;28;20053;-63
2022/04/26 06:46:30;;;;;;;13.40;12.32;;;;;;;15.19;58.18;94967.75;4998723;28;20113;-63
2022/04/26 06:48:58;;;;;;;13.73;12.63;;;;;;;15.42;56.92;94953.88;5012314;28;20092;-63
2022/04/26 06:51:24;;;;;;;13.32;12.25;;;;;;;15.90;55.22;94958.31;4997498;28;20033;-63
2022/04/26 06:53:50;;;;;;;13.20;12.10;;;;;;;16.98;54.51;94935.75;4992636;28;20022;-64
2022/04/26 06:56:15;;;;;;;13.65;12.65;;;;;;;17.61;52.84;94930.22;4992508;28;20064;-64
2022/04/26 06:58:41;;;;;;;12.77;11.68;;;;;;;18.45;51.38;94934.09;4992633;28;20426;-64
2022/04/26 07:01:06;;;;;;;12.65;11.73;;;;;;;19.18;50.71;94935.66;5000034;28;20034;-64
2022/04/26 07:03:31;;;;;;;10.15;9.35;;;;;;;19.28;46.62;94944.25;4999579;28;20511;-64
2022/04/26 07:05:57;;;;;;;9.18;8.38;;;;;;;18.33;47.73;94939.66;4991049;28;20664;-64
2022/04/26 07:08:22;;;;;;;8.60;7.88;;;;;;;18.58;47.97;94913.13;4991072;28;20512;-64
2022/04/26 07:10:48;;;;;;;9.05;8.20;;;;;;;19.46;47.93;94926.41;4991814;28;20114;-65
2022/04/26 07:13:18;;;;;;;7.10;6.50;;;;;;;19.35;45.88;94933.59;4990985;28;20642;-64
2022/04/26 07:15:44;;;;;;;6.10;5.60;;;;;;;17.40;47.94;94948.56;4991381;28;20085;-64
2022/04/26 07:18:12;;;;;;;4.35;4.05;;;;;;;18.60;47.52;94911.66;4990716;28;20056;-64
2022/04/26 07:20:41;;;;;;;4.50;4.20;;;;;;;19.62;44.96;94940.53;4990922;28;20110;-64
2022/04/26 07:23:07;;;;;;;4.85;4.45;;;;;;;19.12;44.33;94947.13;5015842;23;20041;-65
2022/04/26 07:25:33;;;;;;;4.38;3.97;;;;;;;20.42;42.56;94943.75;5011594;28;20482;-65
2022/04/26 07:27:58;;;;;;;3.75;3.55;;;;;;;20.65;38.97;94932.78;4996191;28;20034;-65
2022/04/26 07:30:30;;;;;;;4.03;3.72;;;;;;;20.37;41.18;94941.38;4991544;28;20030;-65
2022/04/26 07:35:39;;;;;;;3.20;3.00;;;;;;;20.39;41.21;94946.41;4991115;28;20011;-65
2022/04/26 07:38:06;;;;;;;3.50;3.20;;;;;;;20.96;39.49;94934.19;4990492;28;20058;-65
2022/04/26 07:40:32;;;;;;;3.58;3.38;;;;;;;21.02;40.28;94929.97;4990081;28;20023;-65
2022/04/26 07:42:57;;;;;;;3.67;3.38;;;;;;;20.75;39.97;94929.38;4991685;28;20053;-65
2022/04/26 07:45:23;;;;;;;3.25;3.05;;;;;;;20.80;40.16;94935.59;4990844;28;20057;-65
2022/04/26 07:47:49;;;;;;;4.40;3.58;;;;;;;20.74;39.54;94952.16;5009441;28;20026;-65
2022/04/26 07:50:15;;;;;;;4.97;3.28;;;;;;;20.60;40.51;94946.63;5008947;28;20026;-65
2022/04/26 07:52:40;;;;;;;3.28;3.05;;;;;;;20.11;40.46;94963.06;4993733;28;20038;-65
2022/04/26 07:55:06;;;;;;;3.10;2.90;;;;;;;17.76;43.62;94952.81;4991242;28;20033;-65
2022/04/26 07:57:32;;;;;;;3.38;3.10;;;;;;;17.93;45.27;94952.38;4990178;28;20018;-64
2022/04/26 07:59:58;;;;;;;3.22;2.85;;;;;;;19.41;44.04;94962.56;4991277;28;20026;-65
2022/04/26 08:02:24;;;;;;;5.20;3.13;;;;;;;20.24;42.58;94964.38;5004818;28;20466;-65
2022/04/26 08:04:50;;;;;;;2.90;2.70;;;;;;;20.06;40.17;94950.66;5010795;28;20030;-65
2022/04/26 08:07:15;;;;;;;2.83;2.58;;;;;;;21.00;39.82;94942.34;4997399;28;20105;-65
2022/04/26 08:09:40;;;;;;;3.15;2.55;;;;;;;21.53;38.71;94953.50;4988623;28;20035;-64
2022/04/26 08:12:06;;;;;;;3.05;2.70;;;;;;;22.08;37.75;94958.03;4990545;28;20101;-65
2022/04/26 08:14:32;;;;;;;2.90;2.40;;;;;;;22.33;36.77;94960.06;4990705;28;20080;-65
2022/04/26 08:16:57;;;;;;;2.63;2.42;;;;;;;22.44;36.56;94960.84;5000709;28;20502;-66
2022/04/26 08:19:23;;;;;;;2.17;2.08;;;;;;;18.57;40.31;94955.47;5010660;28;20440;-65
2022/04/26 08:21:48;;;;;;;2.53;2.28;;;;;;;19.11;40.60;94959.81;5001877;28;20023;-65
2022/04/26 08:29:41;;;;;;;2.90;2.17;;;;;;;20.92;38.56;94973.94;4990417;28;20126;-65
2022/04/26 08:32:07;;;;;;;4.15;2.03;;;;;;;21.10;38.70;94976.00;4990810;28;20105;-65
2022/04/26 08:34:32;;;;;;;2.28;2.08;;;;;;;20.64;37.18;94954.78;4990355;28;20038;-65
2022/04/26 08:36:58;;;;;;;2.50;2.00;;;;;;;19.38;39.25;94959.81;4990187;28;20031;-64
2022/04/26 08:39:23;;;;;;;2.67;1.90;;;;;;;19.54;39.88;94987.41;4990320;28;20081;-65
2022/04/26 08:41:49;;;;;;;2.47;2.17;;;;;;;19.58;40.13;94987.47;4989924;28;20080;-64
2022/04/26 08:44:15;;;;;;;2.40;2.20;;;;;;;19.15;41.62;94979.53;4989298;28;20570;-64
2022/04/26 08:52:09;;;;;;;2.50;2.22;;;;;;;19.43;43.15;94995.34;4990634;28;20037;-64
2022/04/26 08:54:35;;;;;;;2.25;2.05;;;;;;;19.16;42.60;94996.50;4990710;28;20027;-65
2022/04/26 08:57:01;;;;;;;2.25;2.15;;;;;;;18.76;43.15;94997.00;4989346;28;20053;-65
2022/04/26 08:59:27;;;;;;;2.70;2.50;;;;;;;18.48;44.54;95000.72;4990036;28;20033;-64
2022/04/26 09:02:19;;;;;;;3.00;2.80;;;;;;;18.43;44.64;95001.03;4994609;28;20042;-64
2022/04/26 09:04:46;;;;;;;2.70;2.50;;;;;;;18.99;44.18;94992.38;4999785;28;20030;-65
2022/04/26 09:07:26;;;;;;;4.78;2.83;;;;;;;17.81;46.61;95002.84;4990554;28;20534;-64
2022/04/26 09:10:03;;;;;;;3.10;2.80;;;;;;;17.83;46.62;95003.31;4989319;28;20445;-65
2022/04/26 09:12:28;;;;;;;3.35;3.13;;;;;;;18.29;46.56;94987.28;4990431;28;20490;-64
2022/04/26 09:14:54;;;;;;;3.10;2.95;;;;;;;18.25;47.02;94991.81;4988325;28;20034;-64
2022/04/26 09:17:19;;;;;;;3.40;3.20;;;;;;;17.78;48.03;95009.75;4998705;28;20022;-64
2022/04/26 09:19:55;;;;;;;4.22;3.80;;;;;;;16.62;50.91;94983.22;4994606;28;20026;-65
2022/04/26 09:22:31;;;;;;;5.25;3.83;;;;;;;17.18;50.90;94984.19;4989494;28;20106;-71
2022/04/26 09:24:56;;;;;;;5.13;4.70;;;;;;;17.78;52.90;95007.03;4990251;28;20035;-66
2022/04/26 09:27:23;;;;;;;4.82;4.50;;;;;;;17.89;53.04;94985.75;4991421;28;20027;-68
2022/04/26 09:29:48;;;;;;;4.65;4.35;;;;;;;17.06;49.79;94972.41;4989286;28;20031;-67
2022/04/26 09:32:14;;;;;;;4.15;3.83;;;;;;;15.32;54.10;95014.88;4996295;28;20030;-67
2022/04/26 09:34:40;;;;;;;8.18;4.15;;;;;;;15.64;55.17;94990.16;5008453;28;20037;-67
2022/04/26 09:37:06;;;;;;;4.30;4.00;;;;;;;16.49;54.26;95019.34;5009584;28;20117;-64
2022/04/26 09:39:31;;;;;;;5.20;4.80;;;;;;;15.75;55.98;95012.69;4999573;28;20026;-65
2022/04/26 09:41:57;;;;;;;4.43;4.13;;;;;;;15.03;56.49;94973.00;4988563;28;20489;-65
2022/04/26 09:44:33;;;;;;;4.80;4.40;;;;;;;14.83;57.20;95011.41;4990211;28;20073;-65
2022/04/26 09:46:59;;;;;;;8.70;6.72;;;;;;;14.80;57.81;95001.38;4992317;28;20029;-66
2022/04/26 09:49:25;;;;;;;13.45;6.60;;;;;;;14.85;59.26;95024.47;5009760;28;20120;-64
2022/04/26 09:51:56;;;;;;;8.43;7.45;;;;;;;13.69;62.12;95023.50;5009618;28;20030;-66
2022/04/26 09:54:25;;;;;;;10.98;9.50;;;;;;;13.39;62.93;95030.78;5008539;28;20116;-67
2022/04/26 09:56:51;;;;;;;11.93;10.57;;;;;;;14.11;62.93;95020.78;5013904;28;20033;-67
2022/04/26 09:59:29;;;;;;;16.90;10.52;;;;;;;14.80;62.64;95026.25;4995919;28;20031;-66
2022/04/26 10:01:59;;;;;;;24.30;18.25;;;;;;;15.06;61.33;95025.16;4993108;28;20036;-66
2022/04/26 10:04:27;;;;;;;21.42;15.38;;;;;;;14.90;61.32;95022.34;5011933;28;20137;-64
2022/04/26 10:07:02;;;;;;;23.58;17.58;;;;;;;16.26;61.93;95013.72;4996122;28;20629;-64
2022/04/26 10:09:28;;;;;;;15.02;13.35;;;;;;;17.13;62.04;95004.81;4993080;28;20022;-65
2022/04/26 10:11:57;;;;;;;22.00;15.38;;;;;;;17.93;61.11;95008.91;4993179;28;20034;-65
2022/04/26 10:14:23;;;;;;;10.57;9.57;;;;;;;18.74;59.42;95018.13;4993402;28;20023;-65
2022/04/26 10:16:49;;;;;;;11.75;9.27;;;;;;;19.27;57.13;95005.50;4992481;28;20018;-65
2022/04/26 10:19:16;;;;;;;7.88;7.28;;;;;;;19.09;55.24;94999.06;4994565;28;20466;-65
2022/04/26 10:21:41;;;;;;;7.50;6.85;;;;;;;19.31;52.32;95011.75;4992913;28;20030;-65
2022/04/26 10:24:20;;;;;;;6.38;5.78;;;;;;;19.31;51.79;95002.88;4992818;28;20034;-66
2022/04/26 10:26:46;;;;;;;4.75;4.22;;;;;;;18.05;49.63;95026.81;4991872;28;20037;-65
2022/04/26 10:29:15;;;;;;;3.83;3.53;;;;;;;17.39;48.09;94998.09;4993136;28;20026;-66
2022/04/26 10:31:47;;;;;;;3.25;3.05;;;;;;;16.99;51.30;95036.72;4991575;28;20038;-65
2022/04/26 10:34:25;;;;;;;4.65;4.30;;;;;;;17.88;52.83;95029.94;5011830;28;20363;-64
2022/04/26 10:37:02;;;;;;;4.78;4.45;;;;;;;17.89;52.54;95018.03;5011148;28;20025;-65
2022/04/26 10:39:32;;;;;;;4.35;3.80;;;;;;;16.91;51.64;95035.00;4999513;28;20497;-65
2022/04/26 10:42:00;;;;;;;4.07;3.78;;;;;;;17.17;52.88;95031.78;4991915;28;20129;-65
2022/04/26 10:44:31;;;;;;;5.70;3.90;;;;;;;16.44;52.50;95016.13;4991349;28;20036;-65
2022/04/26 10:47:03;;;;;;;8.73;7.93;;;;;;;15.71;57.43;95036.72;4990179;28;20458;-63
2022/04/26 10:49:35;;;;;;;5.93;5.43;;;;;;;14.47;60.04;95041.53;5012124;28;20033;-64
2022/04/26 10:52:19;;;;;;;6.40;5.80;;;;;;;13.27;63.45;95050.19;5012228;28;20437;-64
2022/04/26 10:57:13;;;;;;;8.30;7.60;;;;;;;13.18;66.93;95058.19;4992772;28;20034;-64
2022/04/26 10:59:42;;;;;;;12.18;9.13;;;;;;;12.53;69.08;95050.59;4992267;28;20034;-65
2022/04/26 11:02:33;;;;;;;24.17;11.88;;;;;;;12.69;70.19;95067.63;4989822;28;20054;-65
2022/04/26 11:05:00;;;;;;;14.38;11.95;;;;;;;12.15;72.92;95073.41;5006936;28;20478;-65
2022/04/26 11:07:27;;;;;;;19.08;14.80;;;;;;;12.66;72.20;95103.00;4998267;28;20113;-65
2022/04/26 11:09:54;;;;;;;15.13;8.10;;;;;;;10.43;74.07;95093.09;4992228;28;20022;-66
2022/04/26 11:12:22;;;;;;;11.55;5.75;;;;;;;10.06;75.06;95110.94;4991649;28;20027;-66
2022/04/26 11:14:49;;;;;;;12.93;10.88;;;;;;;10.13;75.98;95129.13;4991024;28;20026;-66
2022/04/26 11:17:16;;;;;;;5.10;3.63;;;;;;;9.35;76.28;95097.31;4991098;28;20113;-67
2022/04/26 11:19:55;;;;;;;7.22;6.47;;;;;;;9.63;76.41;95134.47;4994707;28;20022;-66
2022/04/26 11:22:22;;;;;;;12.57;7.75;;;;;;;9.64;76.41;95130.72;4991572;28;20026;-67
2022/04/26 11:30:29;;;;;;;8.25;5.70;;;;;;;9.26;77.78;95149.53;4991377;28;20033;-65
2022/04/26 11:32:59;;;;;;;9.27;6.72;;;;;;;9.89;75.50;95155.97;4992811;28;20497;-65
2022/04/26 11:35:25;;;;;;;6.78;6.00;;;;;;;9.51;76.41;95161.50;4991431;28;20391;-65
2022/04/26 11:37:53;;;;;;;3.00;2.72;;;;;;;9.09;77.14;95162.59;4990402;28;20053;-65
2022/04/26 11:40:31;;;;;;;9.05;7.35;;;;;;;9.25;77.50;95166.53;4991117;28;20022;-66
2022/04/26 11:42:58;;;;;;;10.35;7.10;;;;;;;9.52;76.61;95180.88;4991570;28;20030;-65
2022/04/26 11:45:28;;;;;;;12.43;9.40;;;;;;;9.79;76.31;95164.94;4990162;28;20549;-66
2022/04/26 11:47:55;;;;;;;7.18;6.13;;;;;;;9.76;77.21;95193.97;4991467;28;20034;-65
2022/04/26 11:50:22;;;;;;;8.40;5.78;;;;;;;9.39;76.13;95193.09;5010703;28;20033;-66
2022/04/26 11:52:50;;;;;;;11.68;8.25;;;;;;;9.78;76.80;95202.44;5000893;28;20022;-65
2022/04/26 11:55:42;;;;;;;8.27;7.40;;;;;;;9.79;75.96;95206.66;4991466;28;20022;-67
2022/04/26 11:58:13;;;;;;;8.95;5.00;;;;;;;9.77;74.65;95212.25;4989788;28;20042;-65
2022/04/26 12:01:11;;;;;;;8.45;6.60;;;;;;;9.63;75.58;95216.81;4989942;28;20081;-65
2022/04/26 12:03:57;;;;;;;7.65;5.72;;;;;;;9.54;75.91;95219.34;4987152;28;20712;-65
2022/04/26 12:06:27;;;;;;;12.27;8.32;;;;;;;9.88;75.30;95211.00;4991195;28;20073;-67
2022/04/26 12:09:02;;;;;;;7.25;6.47;;;;;;;9.38;74.69;95202.94;4990091;28;20026;-65
2022/04/26 12:11:36;;;;;;;5.18;4.53;;;;;;;9.20;76.99;95209.09;4990869;28;20101;-65
2022/04/26 12:14:08;;;;;;;10.07;8.10;;;;;;;9.38;76.91;95221.50;4990042;28;20030;-65
2022/04/26 12:16:48;;;;;;;9.98;7.30;;;;;;;9.80;74.79;95224.16;4990301;28;20563;-68
2022/04/26 12:19:15;;;;;;;8.75;7.20;;;;;;;9.81;74.04;95242.47;5001523;28;20048;-65
2022/04/26 12:21:49;;;;;;;10.48;8.13;;;;;;;9.76;74.79;95202.72;5009182;28;20030;-67
2022/04/26 12:24:21;;;;;;;12.85;9.65;;;;;;;10.64;73.94;95229.81;5010922;28;20025;-65
2022/04/26 12:26:54;;;;;;;;;;;;;;;10.21;74.13;95239.28;5011087;28;20030;-64
2022/04/26 12:29:20;;;;;;;6.85;5.75;;;;;;;9.50;74.86;95241.47;4995456;28;19914;-65
2022/04/26 12:31:50;;;;;;;13.27;9.93;;;;;;;10.07;74.96;95232.09;4989438;28;20088;-65
2022/04/26 12:34:16;;;;;;;17.20;11.25;;;;;;;10.27;74.42;95238.88;5000006;28;20025;-65
2022/04/26 12:37:17;;;;;;;15.93;10.25;;;;;;;10.43;72.75;95247.31;5009241;28;20052;-65
2022/04/26 12:39:48;;;;;;;11.88;8.55;;;;;;;10.07;73.51;95253.34;5010491;28;20540;-68
2022/04/26 12:42:28;;;;;;;8.73;5.47;;;;;;;9.56;74.25;95248.25;4991405;28;20026;-65
2022/04/26 12:44:54;;;;;;;13.57;7.65;;;;;;;9.78;74.69;95253.69;4990744;28;20109;-65
2022/04/26 12:52:54;;;;;;;7.47;6.70;;;;;;;10.18;71.94;95248.63;4991054;28;20088;-65
2022/04/26 12:55:37;;;;;;;5.93;5.32;;;;;;;10.87;70.38;95267.09;4990628;28;20034;-66
2022/04/26 12:58:05;;;;;;;8.07;5.93;;;;;;;10.58;71.04;95254.97;4989171;28;20026;-67
2022/04/26 13:00:31;;;;;;;7.40;6.53;;;;;;;10.68;71.55;95256.59;4990314;28;20026;-65
2022/04/26 13:03:00;;;;;;;8.68;6.85;;;;;;;11.51;69.61;95248.19;4989808;28;20026;-66
2022/04/26 13:05:27;;;;;;;9.63;7.15;;;;;;;11.00;68.69;95260.13;5006816;28;20034;-66
2022/04/26 13:07:53;;;;;;;10.07;7.78;;;;;;;11.68;69.06;95256.28;5010188;28;20022;-66
2022/04/26 13:10:20;;;;;;;9.32;7.90;;;;;;;11.38;67.27;95261.31;4998300;28;20018;-66
2022/04/26 13:12:49;;;;;;;8.73;6.28;;;;;;;10.59;69.80;95264.50;4990583;28;20038;-66
2022/04/26 13:15:15;;;;;;;9.30;7.47;;;;;;;11.08;68.50;95233.56;4990424;28;20026;-66
2022/04/26 13:17:42;;;;;;;14.88;9.32;;;;;;;12.79;68.36;95253.34;4989649;28;20026;-66
2022/04/26 13:20:10;;;;;;;9.00;7.13;;;;;;;12.94;66.42;95240.31;5003021;28;20048;-66
2022/04/26 13:22:37;;;;;;;12.27;8.90;;;;;;;13.78;65.66;95227.41;5009688;28;20037;-65
2022/04/26 13:25:04;;;;;;;7.00;6.40;;;;;;;14.50;65.31;95212.22;4991426;28;21986;-66
2022/04/26 13:27:30;;;;;;;7.32;6.57;;;;;;;15.26;63.80;95206.47;4990177;28;20031;-66
2022/04/26 13:29:56;;;;;;;6.32;5.72;;;;;;;15.75;63.26;95184.31;4990516;28;20030;-66
2022/04/26 13:32:21;;;;;;;7.45;5.95;;;;;;;16.52;63.31;95184.31;4992858;28;20382;-66
2022/04/26 13:34:47;;;;;;;5.35;4.75;;;;;;;17.04;63.30;95186.94;5004327;28;20461;-66
2022/04/26 13:37:12;;;;;;;4.00;3.63;;;;;;;16.31;56.15;95201.38;5013621;28;20026;-66
2022/04/26 13:39:43;;;;;;;3.35;2.92;;;;;;;16.76;59.24;95213.03;5013457;28;20022;-66
2022/04/26 13:42:10;;;;;;;3.05;2.83;;;;;;;16.70;59.78;95230.50;5009836;28;20042;-67
2022/04/26 13:44:35;;;;;;;4.10;2.83;;;;;;;16.63;59.92;95202.31;4994064;28;20050;-67
2022/04/26 13:47:03;;;;;;;3.03;2.70;;;;;;;17.10;61.06;95203.63;4991631;28;20455;-66
2022/04/26 13:49:29;;;;;;;2.78;2.58;;;;;;;17.18;59.67;95199.97;5000428;28;20108;-66
2022/04/26 13:51:54;;;;;;;3.17;2.63;;;;;;;16.26;53.59;95215.03;5011927;28;20113;-66
2022/04/26 13:54:20;;;;;;;3.35;2.00;;;;;;;16.47;58.84;95214.09;5013181;28;20026;-66
2022/04/26 13:56:49;;;;;;;2.20;1.88;;;;;;;16.51;58.58;95204.25;5002021;28;20524;-66
2022/04/26 13:59:15;;;;;;;4.15;2.20;;;;;;;16.61;58.40;95227.94;4993633;28;20026;-66
2022/04/26 14:01:40;;;;;;;1.85;1.75;;;;;;;16.29;57.89;95245.78;4993218;28;20080;-67
2022/04/26 14:04:05;;;;;;;2.65;1.90;;;;;;;16.32;57.51;95231.69;4995417;28;20045;-68
2022/04/26 14:06:31;;;;;;;1.42;1.33;;;;;;;13.93;57.20;95250.91;5013033;28;20084;-66
2022/04/26 14:08:56;;;;;;;2.17;1.40;;;;;;;13.33;59.88;95267.94;5001160;28;20379;-66
2022/04/26 14:11:22;;;;;;;1.45;1.30;;;;;;;14.60;61.97;95254.66;4992970;28;20028;-67
2022/04/26 14:22:04;;;;;;;1.52;1.40;;;;;;;13.92;63.18;95257.38;5012460;28;20104;-66
2022/04/26 14:24:29;;;;;;;2.25;1.60;;;;;;;14.60;63.90;95270.72;5012810;28;20104;-66
2022/04/26 14:26:55;;;;;;;1.52;1.42;;;;;;;14.73;63.41;95275.00;5012615;28;20646;-66
2022/04/26 14:29:20;;;;;;;5.50;1.95;;;;;;;12.52;61.96;95276.59;5012282;28;20045;-66
2022/04/26 14:31:48;;;;;;;2.47;2.28;;;;;;;13.61;63.54;95284.34;4999035;28;20109;-66
2022/04/26 14:34:14;;;;;;;2.78;2.58;;;;;;;11.78;63.61;95287.97;4993264;28;20022;-66
2022/04/26 14:36:40;;;;;;;4.45;2.58;;;;;;;12.15;64.50;95267.28;5011250;28;20121;-65
2022/04/26 14:39:05;;;;;;;3.20;3.00;;;;;;;12.09;63.51;95297.84;5011115;28;20064;-65
2022/04/26 14:41:31;;;;;;;3.15;2.85;;;;;;;11.09;65.58;95301.69;5010391;28;20034;-66
2022/04/26 14:43:56;;;;;;;2.85;2.65;;;;;;;11.62;65.73;95294.81;5012603;28;20029;-67
2022/04/26 14:46:22;;;;;;;3.85;3.22;;;;;;;12.31;64.24;95288.94;4994387;28;20454;-65
2022/04/26 14:48:47;;;;;;;2.97;2.78;;;;;;;12.54;64.54;95279.75;4991997;28;20026;-65
2022/04/26 14:51:13;;;;;;;3.00;2.80;;;;;;;13.74;64.34;95302.09;4998508;28;20062;-65
2022/04/26 14:53:38;;;;;;;3.03;2.72;;;;;;;14.42;64.00;95288.72;4992654;28;20062;-66
2022/04/26 14:56:06;;;;;;;3.03;2.63;;;;;;;14.88;63.68;95286.25;4992856;28;20022;-66
2022/04/26 14:58:33;;;;;;;2.85;2.65;;;;;;;14.14;58.18;95285.75;4992412;28;20040;-64
2022/04/26 15:00:59;;;;;;;2.65;2.45;;;;;;;13.67;59.04;95301.03;4990691;28;20030;-65
2022/04/26 15:03:24;;;;;;;3.47;2.70;;;;;;;14.16;60.43;95304.13;4992101;28;20076;-66
2022/04/26 15:05:49;;;;;;;2.80;2.40;;;;;;;14.21;58.42;95291.34;5004530;28;20030;-64
2022/04/26 15:10:59;;;;;;;2.70;2.50;;;;;;;14.24;56.23;95292.63;5011516;28;20084;-65
2022/04/26 15:18:52;;;;;;;4.95;2.70;;;;;;;16.48;54.73;95294.31;4991448;28;20057;-65
2022/04/26 15:21:18;;;;;;;2.90;2.70;;;;;;;17.50;59.03;95291.44;5006934;28;20116;-65
2022/04/26 15:23:44;;;;;;;3.53;2.78;;;;;;;16.77;51.05;95295.19;5011558;28;20044;-65
2022/04/26 15:26:11;;;;;;;2.63;2.42;;;;;;;16.30;54.56;95306.41;5007976;28;20030;-65
2022/04/26 15:28:37;;;;;;;3.05;2.78;;;;;;;16.33;53.27;95292.31;4991725;28;20114;-65
2022/04/26 15:31:04;;;;;;;4.00;3.45;;;;;;;15.63;51.89;95305.78;4990229;28;20023;-65
2022/04/26 15:33:30;;;;;;;3.78;3.40;;;;;;;15.57;55.72;95305.16;4989801;28;20113;-63
2022/04/26 15:35:57;;;;;;;3.63;3.25;;;;;;;14.88;53.38;95302.31;4991685;28;20118;-64
2022/04/26 15:38:23;;;;;;;5.35;3.50;;;;;;;14.22;54.84;95316.22;4991819;28;20031;-63
2022/04/26 15:40:50;;;;;;;6.20;3.40;;;;;;;13.60;57.02;95296.16;4991165;28;20080;-64
2022/04/26 15:43:15;;;;;;;3.63;3.33;;;;;;;13.40;56.59;95304.84;4991763;28;20424;-64
2022/04/26 15:45:42;;;;;;;4.15;3.80;;;;;;;14.41;55.81;95313.16;4991788;28;20471;-64
2022/04/26 15:48:08;;;;;;;4.65;3.65;;;;;;;13.09;59.98;95305.81;4990516;28;20043;-68
2022/04/26 15:50:33;;;;;;;4.20;3.90;;;;;;;12.15;60.44;95304.59;4988922;28;20038;-63
2022/04/26 15:52:59;;;;;;;4.20;3.88;;;;;;;12.27;59.27;95323.44;4989485;28;20121;-62